La Paz, Honduras
Current Conditions -  °F | °C
As of 6:28 AM on Thursday 29 Jan 2015 (Local Time) from MHTG Reporting Station
Drizzle Drizzle  
Wind Chill: 15°   Ceiling: 2000
Heat Index: 15°   Visibility: 1.2mi
Dew Point: 15°   Wind: 9mph
Humidity: 100%   Direction: 10°N
Pressure: 30.12"   Gusts: NA
Location:  14.2°N, 87.4°W
Report Text: MHTG 291228Z 01008KT 2000 -DZ FEW008 BKN020 15/15 Q1020 A3012 BECMG 4000 -DZ
Loading
Personal Weather Stations






























Interactive Weather Map New forecast layout! Learn more

10-Day Weather Forecast

Advertisements
Track Severe Weather on mobile